Time;durP1;ratioP1;P1;durP2;ratioP2;P2;SDS_P1;SDS_P2;PMS_P1;PMS_P2;Temp;Humidity;BMP_temperature;BMP_pressure;BME280_temperature;BME280_humidity;BME280_pressure;Samples;Min_cycle;Max_cycle;Signal;HPM_P1;HPM_P2
2022/05/28 03:55:26;;;;;;;;;9.00;8.00;;;;;14.94;56.88;101816.34;5090453;27;45303;-73
2022/05/28 03:57:51;;;;;;;;;10.67;7.00;;;;;15.36;56.51;101862.13;5080702;27;45278;-72
2022/05/28 04:00:18;;;;;;;;;8.00;7.00;;;;;15.59;56.21;101866.50;5083911;27;45508;-72
2022/05/28 04:02:43;;;;;;;;;8.33;6.00;;;;;15.79;55.84;101866.53;5074260;27;45539;-75
2022/05/28 04:05:10;;;;;;;;;7.00;7.00;;;;;15.83;55.68;101863.03;5068519;27;45469;-74
2022/05/28 04:07:36;;;;;;;;;11.00;7.67;;;;;16.01;55.38;101868.25;5060732;27;45532;-73
2022/05/28 04:10:03;;;;;;;;;8.00;8.00;;;;;15.92;55.65;101841.84;5073437;27;45548;-71
2022/05/28 04:12:30;;;;;;;;;10.00;8.00;;;;;16.22;55.15;101871.72;5074356;27;45369;-76
2022/05/28 04:14:56;;;;;;;;;13.67;8.67;;;;;15.88;54.90;101795.19;5071435;27;45685;-73
2022/05/28 04:17:22;;;;;;;;;7.00;7.00;;;;;15.86;54.50;101783.75;5071057;27;45516;-73
2022/05/28 04:19:47;;;;;;;;;7.67;7.67;;;;;16.44;54.40;101851.34;5066786;27;45422;-75
2022/05/28 04:22:14;;;;;;;;;9.33;9.33;;;;;16.66;53.73;101876.81;5067999;27;45691;-74
2022/05/28 04:24:40;;;;;;;;;9.33;9.33;;;;;16.53;53.80;101838.09;5062457;27;46355;-75
2022/05/28 04:27:05;;;;;;;;;9.00;8.00;;;;;16.84;53.23;101870.56;5068996;27;46022;-74
2022/05/28 04:29:31;;;;;;;;;8.00;6.67;;;;;16.72;52.85;101838.88;5063279;27;45531;-75
2022/05/28 04:32:18;;;;;;;;;8.33;6.33;;;;;17.10;52.80;101882.78;5072102;27;45452;-74
2022/05/28 04:34:45;;;;;;;;;8.00;8.00;;;;;17.07;52.42;101870.44;5064162;27;45492;-73
2022/05/28 04:37:16;;;;;;;;;6.00;6.00;;;;;17.23;52.25;101892.41;5069644;27;45602;-74
2022/05/28 04:39:44;;;;;;;;;9.00;8.33;;;;;17.28;51.98;101884.41;5064661;27;45383;-74
2022/05/28 04:42:10;;;;;;;;;9.00;7.33;;;;;17.14;52.03;101860.69;5068710;27;45541;-74
2022/05/28 04:44:36;;;;;;;;;6.33;6.33;;;;;17.38;51.46;101889.63;5063893;28;46410;-74
2022/05/28 04:47:02;;;;;;;;;10.33;7.00;;;;;17.37;51.32;101881.69;5070427;27;45714;-75
2022/05/28 04:49:27;;;;;;;;;10.00;8.00;;;;;17.48;51.58;101892.19;5067061;27;45540;-74
2022/05/28 04:51:53;;;;;;;;;6.67;6.67;;;;;17.44;51.58;101879.84;5071208;27;45547;-73
2022/05/28 04:54:19;;;;;;;;;8.67;7.33;;;;;16.62;51.32;101740.19;5075774;27;46626;-74
2022/05/28 04:56:45;;;;;;;;;8.00;6.00;;;;;17.38;51.12;101854.31;5091232;27;45617;-74
2022/05/28 04:59:10;;;;;;;;;10.00;6.00;;;;;17.58;51.21;101885.91;5093364;27;45555;-75
2022/05/28 05:01:36;;;;;;;;;5.67;5.67;;;;;17.29;51.57;101830.56;5091368;27;45434;-73
2022/05/28 05:04:02;;;;;;;;;7.33;7.33;;;;;17.73;51.01;101899.03;5081066;27;45561;-74
2022/05/28 05:06:31;;;;;;;;;11.33;8.33;;;;;17.34;50.78;101826.97;5077827;27;45578;-74
2022/05/28 05:09:00;;;;;;;;;7.67;7.00;;;;;17.45;50.80;101840.13;5078783;27;45433;-75
2022/05/28 05:11:26;;;;;;;;;8.33;7.33;;;;;17.71;50.66;101889.34;5060351;27;45558;-74
2022/05/28 05:13:52;;;;;;;;;6.33;6.33;;;;;17.74;50.57;101884.88;5076397;27;45523;-74
2022/05/28 05:16:21;;;;;;;;;10.00;8.67;;;;;17.68;50.45;101869.06;5070848;27;45786;-74
2022/05/28 05:18:46;;;;;;;;;5.67;5.67;;;;;17.92;50.74;101915.69;5071698;27;45387;-74
2022/05/28 05:21:12;;;;;;;;;10.33;7.33;;;;;17.75;50.41;101873.41;5072165;27;46144;-75
2022/05/28 05:23:41;;;;;;;;;10.33;7.00;;;;;17.68;49.99;101847.88;5078129;27;46259;-75
2022/05/28 05:26:15;;;;;;;;;10.00;7.00;;;;;17.54;50.17;101832.09;5087060;27;45403;-74
2022/05/28 05:28:41;;;;;;;;;9.33;7.67;;;;;17.72;50.19;101854.00;5068591;27;45426;-75
2022/05/28 05:31:07;;;;;;;;;8.67;8.33;;;;;17.11;50.23;101742.47;5076730;27;46147;-73
2022/05/28 05:33:33;;;;;;;;;8.67;8.67;;;;;17.77;49.75;101830.97;5076190;27;45584;-74
2022/05/28 05:35:59;;;;;;;;;7.33;7.00;;;;;18.08;49.91;101867.78;5067020;27;45808;-73
2022/05/28 05:38:24;;;;;;;;;6.67;6.67;;;;;18.14;49.66;101879.22;5063952;27;46392;-73
2022/05/28 05:40:51;;;;;;;;;13.33;9.33;;;;;18.25;49.49;101889.72;5068096;27;45432;-72
2022/05/28 05:43:19;;;;;;;;;14.33;7.33;;;;;18.13;49.44;101861.56;5060826;27;46434;-73
2022/05/28 05:46:14;;;;;;;;;11.33;8.67;;;;;18.26;49.08;101887.94;5055499;27;45528;-74
2022/05/28 05:48:40;;;;;;;;;7.33;6.33;;;;;18.02;48.92;101850.19;5057627;28;46293;-73
2022/05/28 05:51:14;;;;;;;;;7.67;6.33;;;;;17.85;49.12;101826.53;5076735;27;45493;-74
2022/05/28 05:53:41;;;;;;;;;7.33;7.33;;;;;18.31;48.82;101891.41;5075775;27;46413;-75
2022/05/28 05:56:07;;;;;;;;;6.33;6.33;;;;;18.27;48.74;101873.75;5058516;27;45493;-74
2022/05/28 05:58:36;;;;;;;;;7.00;5.00;;;;;18.31;48.77;101872.84;5046805;28;45615;-74
2022/05/28 06:01:03;;;;;;;;;9.33;7.67;;;;;18.42;48.58;101890.38;5062702;27;45499;-73
2022/05/28 06:03:29;;;;;;;;;11.33;8.00;;;;;17.98;48.59;101814.88;5063785;27;46303;-76
2022/05/28 06:05:57;;;;;;;;;9.67;6.00;;;;;18.42;48.74;101902.78;5058667;28;45608;-72
2022/05/28 06:08:23;;;;;;;;;7.00;7.00;;;;;18.05;48.74;101818.34;5075205;27;45604;-73
2022/05/28 06:10:48;;;;;;;;;9.33;7.67;;;;;17.93;48.56;101800.81;5069410;27;45459;-76
2022/05/28 06:13:14;;;;;;;;;9.00;6.00;;;;;18.03;48.66;101804.22;5066232;27;45901;-74
2022/05/28 06:15:40;;;;;;;;;10.00;8.33;;;;;18.64;48.97;101890.09;5057908;28;45395;-72
2022/05/28 06:18:06;;;;;;;;;9.00;8.00;;;;;18.26;49.05;101811.03;5067439;27;45616;-73
2022/05/28 06:20:31;;;;;;;;;6.67;6.67;;;;;18.50;48.50;101857.56;5057947;28;45549;-73
2022/05/28 06:22:57;;;;;;;;;7.33;7.00;;;;;18.73;48.21;101887.34;5065459;27;45384;-73
2022/05/28 06:25:22;;;;;;;;;9.00;8.00;;;;;18.87;48.42;101891.63;5058258;28;45463;-72
2022/05/28 06:27:48;;;;;;;;;7.00;7.00;;;;;18.93;48.80;101884.41;5071565;27;45346;-73
2022/05/28 06:30:14;;;;;;;;;7.67;7.00;;;;;18.73;48.46;101852.84;5057845;28;45409;-73
2022/05/28 06:32:40;;;;;;;;;13.00;7.67;;;;;18.89;48.09;101884.47;5074782;27;46077;-75
2022/05/28 06:35:06;;;;;;;;;12.33;8.00;;;;;18.92;47.76;101897.75;5065796;27;45754;-73
2022/05/28 06:37:32;;;;;;;;;7.00;7.00;;;;;18.83;47.38;101867.75;5048947;28;45609;-72
2022/05/28 06:39:57;;;;;;;;;9.33;9.00;;;;;18.96;47.28;101894.13;5057524;28;45580;-74
2022/05/28 06:42:23;;;;;;;;;9.67;7.67;;;;;18.96;47.32;101902.97;5061903;27;45299;-74
2022/05/28 06:44:49;;;;;;;;;11.00;9.00;;;;;19.00;47.42;101893.19;5057685;28;45418;-75
2022/05/28 06:47:17;;;;;;;;;8.33;7.33;;;;;18.97;46.93;101875.53;5072404;27;45331;-75
2022/05/28 06:51:01;;;;;;;;;10.33;7.00;;;;;19.17;47.04;101904.44;5077587;27;45406;-74
2022/05/28 06:52:28;;;;;;;;;9.33;7.00;;;;;19.13;46.96;101884.16;5077059;27;46051;-73
2022/05/28 06:54:54;;;;;;;;;8.33;7.33;;;;;19.24;47.05;101883.97;5077111;27;45528;-74
2022/05/28 06:57:20;;;;;;;;;10.33;8.00;;;;;19.38;46.83;101892.59;5083728;27;45541;-74
2022/05/28 06:59:45;;;;;;;;;7.33;7.33;;;;;19.00;46.97;101832.97;5063610;27;45640;-72
2022/05/28 07:02:11;;;;;;;;;13.67;7.33;;;;;19.43;47.12;101893.41;5083400;27;45532;-74
2022/05/28 07:04:36;;;;;;;;;7.00;7.00;;;;;19.32;47.24;101873.22;5077186;27;45485;-74
2022/05/28 07:07:02;;;;;;;;;8.67;8.00;;;;;19.31;47.52;101868.81;5078390;27;45596;-72
2022/05/28 07:09:28;;;;;;;;;9.00;7.67;;;;;19.57;47.15;101897.59;5088068;27;45563;-75
2022/05/28 07:11:54;;;;;;;;;10.00;8.67;;;;;19.11;47.58;101816.03;5084817;27;46345;-72
2022/05/28 07:14:19;;;;;;;;;7.00;7.00;;;;;19.63;47.32;101884.22;5078061;27;45598;-74
2022/05/28 07:16:45;;;;;;;;;8.00;6.00;;;;;19.69;47.07;101886.78;5091928;27;45434;-74
2022/05/28 07:19:11;;;;;;;;;8.67;7.33;;;;;19.80;47.44;101892.78;5079574;27;45518;-74
2022/05/28 07:21:36;;;;;;;;;10.67;7.00;;;;;19.85;47.30;101890.06;5061622;28;46968;-72
2022/05/28 07:24:02;;;;;;;;;11.33;8.00;;;;;19.91;46.77;101881.97;5077262;27;45331;-73
2022/05/28 07:26:28;;;;;;;;;11.67;9.00;;;;;19.77;46.72;101857.44;5059231;27;45511;-73
2022/05/28 07:28:55;;;;;;;;;12.33;9.00;;;;;19.62;47.14;101859.44;5087071;27;45495;-73
2022/05/28 07:31:21;;;;;;;;;9.33;9.33;;;;;19.54;47.73;101884.38;5069589;27;47192;-73
2022/05/28 07:33:48;;;;;;;;;12.33;10.67;;;;;19.55;47.74;101887.03;5076816;27;45513;-73
2022/05/28 07:36:20;;;;;;;;;12.33;9.33;;;;;19.59;47.47;101879.84;5077059;27;45461;-74
2022/05/28 07:38:47;;;;;;;;;13.33;13.33;;;;;19.05;47.60;101823.19;5077177;27;45434;-74
2022/05/28 07:41:16;;;;;;;;;11.67;10.33;;;;;19.30;47.85;101869.72;5058665;28;48317;-76
2022/05/28 07:43:42;;;;;;;;;8.67;8.00;;;;;18.69;48.00;101789.22;5076847;27;45515;-74
2022/05/28 07:46:14;;;;;;;;;13.67;9.00;;;;;19.05;48.24;101873.66;5077179;27;45311;-73
2022/05/28 07:48:40;;;;;;;;;12.33;10.33;;;;;18.84;48.46;101856.25;5075487;27;45431;-74
2022/05/28 07:51:06;;;;;;;;;15.33;11.67;;;;;18.90;48.67;101865.03;5076548;27;45488;-74
2022/05/28 07:53:32;;;;;;;;;15.33;10.00;;;;;18.76;48.77;101867.84;5076340;27;45548;-73
2022/05/28 07:56:00;;;;;;;;;14.00;10.67;;;;;18.35;49.06;101795.00;5058659;28;45803;-74
2022/05/28 07:58:26;;;;;;;;;10.33;7.67;;;;;18.80;48.78;101849.22;5077478;27;45534;-76
2022/05/28 08:00:52;;;;;;;;;9.00;7.67;;;;;19.03;48.30;101863.91;5073133;27;45602;-74
2022/05/28 08:03:18;;;;;;;;;7.00;6.67;;;;;19.17;48.28;101866.38;5064019;27;45388;-74
2022/05/28 08:05:47;;;;;;;;;9.33;7.00;;;;;19.32;47.62;101858.16;5078656;27;45697;-74
2022/05/28 08:08:14;;;;;;;;;8.00;8.00;;;;;19.24;47.20;101821.13;5082649;27;45232;-74
2022/05/28 08:10:41;;;;;;;;;7.33;7.00;;;;;19.30;47.09;101816.59;5082794;27;45414;-74
2022/05/28 08:13:10;;;;;;;;;12.33;9.00;;;;;19.71;46.82;101861.06;5062731;28;45471;-74
2022/05/28 08:15:41;;;;;;;;;12.67;9.67;;;;;19.57;46.50;101824.06;5068539;27;45226;-74
2022/05/28 08:18:08;;;;;;;;;6.67;5.67;;;;;19.92;46.06;101862.44;5076444;27;45483;-74
2022/05/28 08:23:19;;;;;;;;;7.67;6.00;;;;;20.07;45.73;101843.56;5081174;27;45522;-74
2022/05/28 08:25:46;;;;;;;;;8.00;7.00;;;;;20.20;45.81;101852.16;5076401;27;45556;-75
2022/05/28 08:28:13;;;;;;;;;8.33;8.00;;;;;20.28;45.02;101854.66;5076520;27;45484;-73
2022/05/28 08:30:39;;;;;;;;;8.33;7.00;;;;;20.36;45.28;101862.47;5078664;27;45447;-71
2022/05/28 08:33:10;;;;;;;;;13.33;9.00;;;;;20.44;45.15;101855.22;5079533;27;45531;-73
2022/05/28 08:35:38;;;;;;;;;7.00;7.00;;;;;20.32;44.29;101829.72;5074913;27;45388;-70
2022/05/28 08:38:08;;;;;;;;;12.67;9.00;;;;;20.21;44.55;101807.78;5076050;27;45613;-70
2022/05/28 08:40:44;;;;;;;;;9.33;7.67;;;;;20.36;44.45;101823.44;5058933;27;46715;-69
2022/05/28 08:43:14;;;;;;;;;9.67;9.33;;;;;20.61;43.85;101847.75;5088280;27;45441;-72
2022/05/28 08:45:39;;;;;;;;;8.00;7.33;;;;;20.37;44.18;101798.56;5080011;28;45485;-74
2022/05/28 08:48:06;;;;;;;;;13.00;10.00;;;;;20.17;43.87;101768.88;5080818;27;45502;-72
2022/05/28 08:50:52;;;;;;;;;7.67;7.33;;;;;20.57;44.03;101832.75;5061709;28;47102;-70
2022/05/28 08:53:23;;;;;;;;;11.00;9.00;;;;;20.67;43.77;101831.66;5068254;27;45539;-73
2022/05/28 08:55:53;;;;;;;;;9.33;7.67;;;;;20.83;43.68;101833.97;5082833;27;45682;-71
2022/05/28 08:58:23;;;;;;;;;10.00;9.00;;;;;20.88;43.42;101840.94;5080153;27;45605;-72
2022/05/28 09:01:06;;;;;;;;;10.00;8.00;;;;;20.63;43.35;101807.81;5060735;27;46331;-72
2022/05/28 09:03:44;;;;;;;;;9.00;7.00;;;;;20.81;43.45;101820.69;5087766;27;45380;-75
2022/05/28 09:06:15;;;;;;;;;6.67;6.00;;;;;20.95;42.94;101823.91;5079466;27;45796;-73
2022/05/28 09:08:45;;;;;;;;;6.67;6.67;;;;;20.94;43.49;101806.16;5058560;28;45583;-73
2022/05/28 09:11:42;;;;;;;;;13.00;8.67;;;;;21.04;42.16;101813.94;5064988;27;46459;-74
2022/05/28 09:14:21;;;;;;;;;10.00;9.67;;;;;21.21;42.85;101826.84;5045582;28;45615;-73
2022/05/28 09:16:50;;;;;;;;;9.00;7.67;;;;;21.22;42.64;101823.28;5082395;27;45422;-75
2022/05/28 09:19:22;;;;;;;;;13.33;11.00;;;;;21.08;42.38;101828.94;5043058;27;45564;-72
2022/05/28 09:21:48;;;;;;;;;13.00;12.33;;;;;21.01;42.73;101814.00;5069297;27;46195;-72
2022/05/28 09:24:19;;;;;;;;;10.67;9.33;;;;;20.89;42.84;101801.88;5064530;27;45571;-73
2022/05/28 09:27:05;;;;;;;;;11.00;8.33;;;;;20.59;42.60;101752.88;5058217;28;45453;-74
2022/05/28 09:29:49;;;;;;;;;11.00;9.00;;;;;21.01;42.77;101814.88;5043604;27;45522;-74
2022/05/28 09:32:39;;;;;;;;;12.33;10.33;;;;;20.62;42.85;101780.31;5058813;27;45532;-71
2022/05/28 09:35:39;;;;;;;;;11.67;11.67;;;;;20.91;43.25;101813.38;5056736;28;45555;-73
2022/05/28 09:38:27;;;;;;;;;14.33;10.67;;;;;20.85;43.26;101782.41;5060927;27;46094;-73
2022/05/28 09:41:21;;;;;;;;;12.67;9.67;;;;;21.05;43.30;101810.38;5067919;28;45527;-74
2022/05/28 09:44:05;;;;;;;;;8.00;8.00;;;;;21.11;42.79;101808.41;5060987;27;45407;-73
2022/05/28 09:46:39;;;;;;;;;9.00;8.33;;;;;21.07;42.81;101785.44;5059161;27;45642;-75
2022/05/28 09:49:21;;;;;;;;;15.33;12.33;;;;;21.19;42.22;101797.59;5068054;27;45478;-71
2022/05/28 09:51:54;;;;;;;;;11.00;11.00;;;;;21.21;41.06;101792.19;5078606;27;45329;-74
2022/05/28 09:54:27;;;;;;;;;14.33;10.00;;;;;21.00;41.54;101786.50;5088519;27;45476;-72
2022/05/28 09:57:21;;;;;;;;;14.67;10.33;;;;;20.96;41.42;101782.16;5088702;27;45298;-72
2022/05/28 09:59:59;;;;;;;;;10.00;7.33;;;;;21.03;41.17;101770.44;5071157;27;45566;-73
2022/05/28 10:02:29;;;;;;;;;11.67;7.67;;;;;21.26;41.22;101775.19;5089560;27;45346;-72
2022/05/28 10:05:16;;;;;;;;;9.00;8.00;;;;;21.38;41.12;101779.34;5077863;27;45990;-72
2022/05/28 10:07:54;;;;;;;;;10.33;7.67;;;;;21.50;40.86;101767.50;5081010;27;45321;-73
2022/05/28 10:10:29;;;;;;;;;9.00;7.67;;;;;21.39;41.41;101730.44;5080761;27;45544;-72
2022/05/28 10:13:13;;;;;;;;;9.67;8.67;;;;;21.43;41.60;101724.16;5061935;28;45440;-72
2022/05/28 10:15:43;;;;;;;;;12.00;11.00;;;;;20.69;42.06;101592.03;5078156;28;46629;-72
2022/05/28 10:18:16;;;;;;;;;9.33;9.00;;;;;21.64;41.42;101759.09;5078151;27;45760;-74
2022/05/28 10:20:42;;;;;;;;;9.00;9.00;;;;;21.48;40.92;101719.56;5063701;28;45448;-73
2022/05/28 10:23:15;;;;;;;;;6.67;6.67;;;;;21.07;41.15;101633.63;5070741;27;45523;-74
2022/05/28 10:25:50;;;;;;;;;6.67;6.67;;;;;21.30;41.18;101666.72;5057799;28;45574;-73
2022/05/28 10:28:39;;;;;;;;;9.67;7.33;;;;;21.96;40.32;101764.38;5062255;27;45798;-73
2022/05/28 10:31:19;;;;;;;;;5.33;5.33;;;;;22.08;40.10;101760.50;5058005;28;45421;-73
2022/05/28 10:33:45;;;;;;;;;7.33;6.00;;;;;22.03;38.55;101733.09;5060761;27;45530;-74
2022/05/28 10:36:17;;;;;;;;;11.00;7.00;;;;;22.09;37.24;101753.34;5059714;27;46324;-72
2022/05/28 10:38:44;;;;;;;;;7.00;7.00;;;;;22.13;39.02;101755.03;5074689;27;45539;-74
2022/05/28 10:41:20;;;;;;;;;7.33;6.00;;;;;22.23;37.58;101748.50;5077367;27;45419;-73
2022/05/28 10:43:46;;;;;;;;;7.00;6.33;;;;;22.13;38.22;101728.34;5059351;28;45464;-72
2022/05/28 10:46:27;;;;;;;;;7.00;6.67;;;;;22.21;38.73;101745.03;5077934;27;45714;-71
2022/05/28 10:49:32;;;;;;;;;6.00;5.00;;;;;22.10;36.59;101729.31;5069580;27;45520;-73
2022/05/28 10:52:24;;;;;;;;;7.33;6.00;;;;;22.16;38.20;101745.16;5077619;28;45512;-72
2022/05/28 10:55:04;;;;;;;;;7.00;6.00;;;;;22.01;38.99;101718.91;5088208;27;45302;-71
2022/05/28 10:58:07;;;;;;;;;7.67;6.00;;;;;22.26;39.09;101732.44;5077679;27;46158;-71
2022/05/28 11:01:00;;;;;;;;;10.00;8.33;;;;;22.40;35.93;101734.63;5071573;27;45421;-72
2022/05/28 11:03:40;;;;;;;;;6.00;5.33;;;;;22.37;37.51;101726.72;5076702;27;45350;-72
2022/05/28 11:06:36;;;;;;;;;7.00;6.00;;;;;22.32;37.34;101700.19;5079642;27;45983;-71
2022/05/28 11:09:22;;;;;;;;;7.67;6.33;;;;;22.50;34.75;101708.56;5071671;27;47145;-71
2022/05/28 11:12:02;;;;;;;;;6.00;6.00;;;;;22.00;37.34;101666.50;5076998;27;45326;-72
2022/05/28 11:14:33;;;;;;;;;6.00;5.00;;;;;22.48;37.02;101723.75;5091092;27;45316;-72
2022/05/28 11:17:02;;;;;;;;;5.00;5.00;;;;;22.56;37.34;101716.34;5077270;27;45480;-73
2022/05/28 11:19:48;;;;;;;;;4.33;4.33;;;;;22.71;36.95;101721.19;5077866;27;45863;-72
2022/05/28 11:22:59;;;;;;;;;8.00;5.33;;;;;22.80;36.20;101706.63;5066383;28;45302;-71
2022/05/28 11:25:48;;;;;;;;;5.00;5.00;;;;;23.05;36.69;101712.94;5021028;28;45494;-70
2022/05/28 11:28:45;;;;;;;;;3.67;3.67;;;;;23.07;35.72;101683.50;5079032;27;45472;-71
2022/05/28 11:31:41;;;;;;;;;4.00;4.00;;;;;23.36;35.53;101695.81;5066241;27;47083;-71
2022/05/28 11:34:30;;;;;;;;;7.00;6.00;;;;;23.49;34.57;101696.22;5080366;27;45479;-72
2022/05/28 11:37:04;;;;;;;;;5.67;5.33;;;;;23.50;34.95;101696.19;5052124;27;45840;-72
2022/05/28 11:39:45;;;;;;;;;5.00;5.00;;;;;23.48;34.65;101689.16;5057440;27;45421;-73
2022/05/28 11:42:31;;;;;;;;;6.00;3.67;;;;;23.33;35.37;101676.34;5076635;27;45966;-73
2022/05/28 11:45:04;;;;;;;;;5.67;5.00;;;;;23.39;34.65;101686.81;5083799;27;45630;-77
2022/05/28 11:47:58;;;;;;;;;7.00;5.00;;;;;23.29;35.56;101683.59;5078046;27;45599;-71
2022/05/28 11:53:28;;;;;;;;;7.67;4.00;;;;;23.13;34.97;101680.59;5080823;27;45692;-72
2022/05/28 11:56:01;;;;;;;;;4.00;2.67;;;;;23.10;35.46;101677.16;5085912;27;45578;-71
2022/05/28 11:58:34;;;;;;;;;8.33;4.67;;;;;22.78;35.66;101620.34;5074150;27;45623;-74
2022/05/28 12:01:08;;;;;;;;;4.33;2.67;;;;;23.09;34.83;101668.28;5076920;28;45452;-74
2022/05/28 12:03:34;;;;;;;;;3.00;2.67;;;;;23.07;34.63;101630.94;5063073;27;45571;-72
2022/05/28 12:06:02;;;;;;;;;5.00;3.67;;;;;23.34;34.63;101673.59;5082092;27;45399;-73
2022/05/28 12:08:31;;;;;;;;;4.00;3.00;;;;;23.47;33.89;101660.69;5068606;27;45438;-72
2022/05/28 12:11:01;;;;;;;;;4.33;3.00;;;;;23.58;32.79;101661.13;5081262;27;45481;-76
2022/05/28 12:13:52;;;;;;;;;4.00;4.00;;;;;23.56;32.75;101630.03;5065723;27;47077;-73
2022/05/28 12:16:18;;;;;;;;;5.00;3.00;;;;;23.81;33.59;101646.03;5079399;28;45410;-72
2022/05/28 12:18:59;;;;;;;;;5.33;4.00;;;;;23.37;32.40;101544.31;5078730;27;45488;-73
2022/05/28 12:21:35;;;;;;;;;3.33;3.33;;;;;23.10;32.02;101488.31;5089142;27;45363;-70
2022/05/28 12:24:22;;;;;;;;;3.33;3.33;;;;;24.11;32.08;101636.81;5089428;27;46196;-72
2022/05/28 12:26:55;;;;;;;;;5.33;3.00;;;;;24.09;30.71;101636.00;5080113;27;45544;-71
2022/05/28 12:29:35;;;;;;;;;3.33;3.33;;;;;23.80;31.88;101613.09;5079782;27;45413;-70
2022/05/28 12:32:21;;;;;;;;;4.00;4.00;;;;;23.88;32.17;101636.84;5079710;27;45537;-74
2022/05/28 12:35:00;;;;;;;;;2.00;2.00;;;;;23.77;31.62;101621.22;5080129;27;46540;-73
2022/05/28 12:38:01;;;;;;;;;4.00;3.00;;;;;23.59;31.76;101601.38;5084030;27;45408;-72
2022/05/28 12:40:56;;;;;;;;;3.67;3.00;;;;;23.83;30.88;101622.78;5081816;27;45492;-71
2022/05/28 12:43:35;;;;;;;;;5.00;4.00;;;;;23.90;30.88;101611.78;5058209;27;45454;-73
2022/05/28 12:46:18;;;;;;;;;6.00;4.00;;;;;23.89;30.81;101625.19;5081615;27;46047;-71
2022/05/28 12:48:47;;;;;;;;;5.00;3.00;;;;;23.29;31.14;101524.09;5070577;27;45986;-73
2022/05/28 12:51:33;;;;;;;;;5.67;3.67;;;;;23.56;31.26;101572.06;5067271;28;45341;-72
2022/05/28 12:54:03;;;;;;;;;5.00;3.00;;;;;23.57;31.59;101581.84;5061453;28;47132;-73
2022/05/28 12:56:45;;;;;;;;;3.00;3.00;;;;;23.61;31.71;101602.19;5088004;27;45587;-73
2022/05/28 12:59:28;;;;;;;;;4.33;3.00;;;;;23.61;31.79;101607.53;5063711;28;45640;-73
2022/05/28 13:02:03;;;;;;;;;2.00;2.00;;;;;23.58;31.76;101598.75;5087542;27;45705;-72
2022/05/28 13:04:40;;;;;;;;;5.00;3.00;;;;;23.51;32.11;101598.13;5082475;27;45354;-71
2022/05/28 13:07:30;;;;;;;;;278.25;248.25;;;;;23.48;33.30;101600.91;5090185;27;46209;-71
2022/05/28 13:10:11;;;;;;;;;98.75;85.50;;;;;23.51;32.79;101611.47;5096978;27;45529;-72
2022/05/28 13:12:51;;;;;;;;;53.50;43.50;;;;;23.46;31.44;101595.63;5092416;27;45439;-69
2022/05/28 13:15:36;;;;;;;;;35.00;30.67;;;;;23.57;31.99;101595.22;5085699;27;45476;-71
2022/05/28 13:18:35;;;;;;;;;19.00;17.00;;;;;23.55;31.25;101558.78;5080327;27;45927;-69
2022/05/28 13:21:28;;;;;;;;;9.00;8.33;;;;;23.91;30.62;101583.22;5078989;27;45247;-72
2022/05/28 13:24:06;;;;;;;;;8.67;8.67;;;;;24.07;30.36;101587.00;5088207;27;45483;-71
2022/05/28 13:26:53;;;;;;;;;7.00;5.00;;;;;24.24;29.85;101588.13;5060279;28;45483;-72
2022/05/28 13:29:30;;;;;;;;;6.67;5.00;;;;;24.43;29.97;101578.38;5079032;27;45490;-72
2022/05/28 13:32:04;;;;;;;;;5.33;4.67;;;;;24.30;29.31;101518.28;5070573;27;45415;-73
2022/05/28 13:34:33;;;;;;;;;6.33;5.33;;;;;24.46;30.40;101530.06;5094841;27;45511;-72
2022/05/28 13:36:59;;;;;;;;;6.67;5.00;;;;;24.68;29.83;101559.47;5065342;28;45323;-72
2022/05/28 13:39:26;;;;;;;;;6.00;6.00;;;;;24.58;29.65;101550.09;5083629;27;45457;-71
2022/05/28 13:41:55;;;;;;;;;5.00;5.00;;;;;24.44;30.16;101574.78;5078582;27;45473;-71
2022/05/28 13:44:26;;;;;;;;;6.67;6.00;;;;;23.97;31.12;101516.09;5067698;27;45477;-72
2022/05/28 13:46:56;;;;;;;;;7.00;6.00;;;;;24.31;31.86;101573.53;5088834;27;45528;-73
2022/05/28 13:49:24;;;;;;;;;4.33;4.33;;;;;24.23;30.94;101560.50;5080183;27;45499;-72
2022/05/28 13:51:58;;;;;;;;;7.67;4.00;;;;;24.04;31.57;101528.28;5071690;28;45410;-71
2022/05/28 13:54:24;;;;;;;;;4.00;4.00;;;;;24.20;30.28;101565.09;5091265;27;45424;-73
2022/05/28 13:57:01;;;;;;;;;5.00;5.00;;;;;24.08;30.61;101551.31;5079502;28;45602;-71
2022/05/28 13:59:49;;;;;;;;;4.00;2.33;;;;;24.03;30.02;101555.09;5061048;27;46825;-73
2022/05/28 14:02:23;;;;;;;;;5.00;5.00;;;;;23.72;31.17;101513.50;5066831;27;45482;-71
2022/05/28 14:04:49;;;;;;;;;3.33;3.00;;;;;23.94;30.54;101542.09;5083377;27;45430;-71
2022/05/28 14:07:33;;;;;;;;;4.00;3.67;;;;;24.05;30.69;101551.41;5078665;27;45457;-71
2022/05/28 14:10:02;;;;;;;;;3.33;3.33;;;;;23.92;29.70;101535.00;5083551;27;46525;-71
2022/05/28 14:12:35;;;;;;;;;6.00;5.00;;;;;23.73;29.84;101515.25;5088009;27;45460;-71
2022/05/28 14:15:06;;;;;;;;;6.67;4.00;;;;;23.74;29.87;101546.44;5080068;27;45615;-72
2022/05/28 14:17:37;;;;;;;;;3.67;3.00;;;;;23.58;29.68;101521.22;5088029;27;45421;-72
2022/05/28 14:20:06;;;;;;;;;5.00;5.00;;;;;23.69;30.47;101541.25;5081080;27;46032;-71
2022/05/28 14:22:44;;;;;;;;;7.00;6.00;;;;;23.66;30.92;101553.88;5087525;27;45574;-69
2022/05/28 14:25:19;;;;;;;;;5.33;5.00;;;;;23.48;29.96;101518.91;5040802;27;45786;-70
2022/05/28 14:27:44;;;;;;;;;10.00;7.00;;;;;23.11;32.58;101465.13;5081255;27;45476;-70
2022/05/28 14:30:12;;;;;;;;;4.00;4.00;;;;;23.56;30.43;101537.31;5079481;27;47020;-70
2022/05/28 14:32:44;;;;;;;;;6.00;4.67;;;;;23.52;30.82;101538.38;5064796;27;45338;-72
2022/05/28 14:35:20;;;;;;;;;4.33;4.33;;;;;23.55;29.61;101537.38;5092136;27;47122;-70
2022/05/28 14:37:56;;;;;;;;;3.00;2.00;;;;;23.46;30.72;101517.22;5090686;27;45322;-69
2022/05/28 14:40:29;;;;;;;;;3.33;3.00;;;;;23.54;30.02;101530.28;5085132;27;45721;-70
2022/05/28 14:42:58;;;;;;;;;3.00;3.00;;;;;23.47;30.66;101530.53;5079162;27;45454;-68
2022/05/28 14:45:32;;;;;;;;;5.33;4.00;;;;;23.28;29.80;101492.97;5077977;27;45548;-70
2022/05/28 14:48:01;;;;;;;;;6.00;4.33;;;;;23.45;30.85;101511.00;5078804;27;45371;-69
2022/05/28 14:50:31;;;;;;;;;3.00;3.00;;;;;23.51;30.63;101517.91;5061334;27;46826;-69
2022/05/28 14:52:58;;;;;;;;;3.67;3.00;;;;;23.63;30.72;101521.91;5083629;27;45475;-72
2022/05/28 14:55:30;;;;;;;;;4.00;4.00;;;;;23.65;30.85;101509.34;5089200;27;45416;-72
2022/05/28 14:58:25;;;;;;;;;4.00;4.00;;;;;23.59;29.55;101474.84;5066370;27;45222;-71
2022/05/28 15:01:04;;;;;;;;;4.00;4.00;;;;;23.76;29.50;101511.63;5046040;28;45582;-71
2022/05/28 15:03:33;;;;;;;;;3.00;3.00;;;;;23.55;30.36;101502.63;5082588;27;45406;-72
2022/05/28 15:06:22;;;;;;;;;2.67;2.67;;;;;23.54;30.23;101506.22;5080570;27;45460;-71
2022/05/28 15:08:52;;;;;;;;;6.00;4.33;;;;;23.47;29.68;101489.56;5094995;27;45493;-70
2022/05/28 15:11:26;;;;;;;;;4.67;4.00;;;;;23.34;30.62;101462.44;5078418;27;45473;-70
2022/05/28 15:14:09;;;;;;;;;4.67;3.67;;;;;23.65;30.73;101498.63;5079287;27;45347;-72
2022/05/28 15:16:41;;;;;;;;;2.33;2.33;;;;;23.65;29.56;101504.84;5077868;28;45573;-71
2022/05/28 15:19:08;;;;;;;;;2.67;2.67;;;;;23.62;28.90;101507.66;5080961;27;45479;-71
2022/05/28 15:21:35;;;;;;;;;4.33;2.67;;;;;23.62;29.35;101506.78;5067687;27;45631;-69
2022/05/28 15:24:05;;;;;;;;;3.67;2.00;;;;;23.70;29.80;101499.31;5096067;27;45352;-71
2022/05/28 15:26:32;;;;;;;;;3.00;3.00;;;;;23.66;29.42;101487.03;5088222;27;45231;-71
2022/05/28 15:28:58;;;;;;;;;2.67;2.67;;;;;23.33;30.06;101420.63;5082360;27;45401;-71
2022/05/28 15:31:23;;;;;;;;;3.00;3.00;;;;;23.74;30.80;101490.28;5060176;27;47945;-72
2022/05/28 15:33:50;;;;;;;;;4.00;2.00;;;;;23.52;28.79;101476.88;5093656;27;45357;-72
2022/05/28 15:39:00;;;;;;;;;4.00;4.00;;;;;23.34;30.27;101489.16;5086404;27;45594;-74
2022/05/28 15:41:26;;;;;;;;;4.33;4.00;;;;;23.19;28.84;101465.72;5083789;27;45548;-71
2022/05/28 15:43:52;;;;;;;;;2.33;2.33;;;;;23.16;29.50;101476.53;5084414;27;45429;-71
2022/05/28 15:46:21;;;;;;;;;4.00;3.00;;;;;23.12;29.60;101457.06;5088914;27;45282;-72
2022/05/28 15:48:47;;;;;;;;;3.00;3.00;;;;;23.21;29.09;101463.88;5077573;27;45494;-72
2022/05/28 15:51:13;;;;;;;;;2.00;2.00;;;;;23.28;29.34;101455.53;5065176;28;45313;-73